createdAt,value
2022-08-29T00:01:43.390Z,2.83
2022-08-29T00:04:12.531Z,3.00
2022-08-29T00:06:42.906Z,2.50
2022-08-29T00:09:13.822Z,3.10
2022-08-29T00:11:43.450Z,2.85
2022-08-29T00:14:20.838Z,3.45
2022-08-29T00:16:52.695Z,3.10
2022-08-29T00:19:21.686Z,3.10
2022-08-29T00:21:52.308Z,3.30
2022-08-29T00:24:21.660Z,3.33
2022-08-29T00:26:50.727Z,2.72
2022-08-29T00:29:19.651Z,2.70
2022-08-29T00:31:48.791Z,2.75
2022-08-29T00:34:17.720Z,2.85
2022-08-29T00:36:49.314Z,3.15
2022-08-29T00:39:23.742Z,3.08
2022-08-29T00:41:53.080Z,3.22
2022-08-29T00:44:22.132Z,2.67
2022-08-29T00:46:56.506Z,2.75
2022-08-29T00:49:31.358Z,2.70
2022-08-29T00:52:01.429Z,2.50
2022-08-29T00:54:32.202Z,2.83
2022-08-29T00:57:01.741Z,2.60
2022-08-29T00:59:32.317Z,3.00
2022-08-29T01:02:03.501Z,3.20
2022-08-29T01:04:33.019Z,2.70
2022-08-29T01:07:02.184Z,2.92
2022-08-29T01:09:33.268Z,2.55
2022-08-29T01:12:16.458Z,2.65
2022-08-29T01:14:48.079Z,2.50
2022-08-29T01:17:19.706Z,2.00
2022-08-29T01:19:54.303Z,2.05
2022-08-29T01:22:38.976Z,2.55
2022-08-29T01:25:13.650Z,2.47
2022-08-29T01:27:46.691Z,2.22
2022-08-29T01:30:16.266Z,1.80
2022-08-29T01:32:45.266Z,1.92
2022-08-29T01:35:14.520Z,1.92
2022-08-29T01:37:44.667Z,2.15
2022-08-29T01:40:15.804Z,2.33
2022-08-29T01:42:45.251Z,2.03
2022-08-29T01:45:14.812Z,2.22
2022-08-29T01:47:43.827Z,2.20
2022-08-29T01:50:15.552Z,3.38
2022-08-29T01:52:44.960Z,1.83
2022-08-29T01:55:15.381Z,2.10
2022-08-29T01:57:44.682Z,2.22
2022-08-29T02:00:13.906Z,1.80
2022-08-29T02:02:43.789Z,2.17
2022-08-29T02:05:12.723Z,2.28
2022-08-29T02:07:41.977Z,1.98
2022-08-29T02:10:11.209Z,2.08
2022-08-29T02:12:43.802Z,2.33
2022-08-29T02:15:13.390Z,2.10
2022-08-29T02:17:42.558Z,2.25
2022-08-29T02:20:14.183Z,2.05
2022-08-29T02:22:43.496Z,2.20
2022-08-29T02:25:30.628Z,2.22
2022-08-29T02:28:01.195Z,1.70
2022-08-29T02:30:30.402Z,1.95
2022-08-29T02:32:59.359Z,2.20
2022-08-29T02:35:36.548Z,2.50
2022-08-29T02:38:07.871Z,2.33
2022-08-29T02:40:37.740Z,2.42
2022-08-29T02:43:08.560Z,1.88
2022-08-29T02:45:38.375Z,2.10
2022-08-29T02:48:07.368Z,3.45
2022-08-29T02:50:36.728Z,2.13
2022-08-29T02:53:05.686Z,1.67
2022-08-29T02:55:37.770Z,2.50
2022-08-29T02:58:08.197Z,2.10
2022-08-29T03:00:38.177Z,1.70
2022-08-29T03:03:07.263Z,2.28
2022-08-29T03:05:37.285Z,2.13
2022-08-29T03:08:07.850Z,2.55
2022-08-29T03:10:37.471Z,2.63
2022-08-29T03:13:10.006Z,2.05
2022-08-29T03:15:38.957Z,2.20
2022-08-29T03:18:08.274Z,2.15
2022-08-29T03:20:38.316Z,2.65
2022-08-29T03:23:07.706Z,2.63
2022-08-29T03:25:37.617Z,2.90
2022-08-29T03:28:08.579Z,2.38
2022-08-29T03:30:37.505Z,3.58
2022-08-29T03:33:09.936Z,2.10
2022-08-29T03:35:41.092Z,2.70
2022-08-29T03:38:10.410Z,2.80
2022-08-29T03:40:42.565Z,2.25
2022-08-29T03:45:42.183Z,2.45
2022-08-29T03:48:11.162Z,2.20
2022-08-29T03:50:40.786Z,1.88
2022-08-29T03:53:09.878Z,2.20
2022-08-29T03:55:39.586Z,2.60
2022-08-29T03:58:08.785Z,2.20
2022-08-29T04:00:37.960Z,2.92
2022-08-29T04:03:08.280Z,2.45
2022-08-29T04:05:37.587Z,2.25
2022-08-29T04:08:07.382Z,2.15
2022-08-29T04:10:38.422Z,2.17
2022-08-29T04:13:08.187Z,2.97
2022-08-29T04:15:59.849Z,2.63
2022-08-29T04:18:34.618Z,2.38
2022-08-29T04:21:10.041Z,2.53
2022-08-29T04:23:42.642Z,2.10
2022-08-29T04:26:37.821Z,2.22
2022-08-29T04:29:08.495Z,2.08
2022-08-29T04:31:38.474Z,2.10
2022-08-29T04:34:10.240Z,2.15
2022-08-29T04:36:41.429Z,1.92
2022-08-29T04:39:11.168Z,2.47
2022-08-29T04:41:40.747Z,2.55
2022-08-29T04:44:10.366Z,1.92
2022-08-29T04:46:40.784Z,2.10
2022-08-29T04:49:11.562Z,2.00
2022-08-29T04:51:40.675Z,2.17
2022-08-29T04:54:10.016Z,1.92
2022-08-29T04:56:40.893Z,2.00
2022-08-29T04:59:21.998Z,2.25
2022-08-29T05:01:58.191Z,2.42
2022-08-29T05:04:29.724Z,2.10
2022-08-29T05:06:58.844Z,2.17
2022-08-29T05:09:28.155Z,2.15
2022-08-29T05:11:57.306Z,2.00
2022-08-29T05:14:27.154Z,1.80
2022-08-29T05:16:56.932Z,2.95
2022-08-29T05:19:26.490Z,2.00
2022-08-29T05:22:01.139Z,2.45
2022-08-29T05:24:37.236Z,2.30
2022-08-29T05:27:09.523Z,2.10
2022-08-29T05:32:08.587Z,2.00
2022-08-29T05:34:38.249Z,2.92
2022-08-29T05:37:10.695Z,2.17
2022-08-29T05:39:45.234Z,2.00
2022-08-29T05:42:16.551Z,1.77
2022-08-29T05:44:48.272Z,2.17
2022-08-29T05:47:29.647Z,2.35
2022-08-29T05:49:58.643Z,1.95
2022-08-29T05:52:29.744Z,1.90
2022-08-29T05:55:01.002Z,2.20
2022-08-29T05:57:30.428Z,2.40
2022-08-29T05:59:59.920Z,2.20
2022-08-29T06:02:30.917Z,3.10
2022-08-29T06:05:06.427Z,2.90
2022-08-29T06:07:41.427Z,2.35
2022-08-29T06:10:11.148Z,2.70
2022-08-29T06:12:40.439Z,2.05
2022-08-29T06:15:13.503Z,2.13
2022-08-29T06:17:42.530Z,2.35
2022-08-29T06:20:13.168Z,1.90
2022-08-29T06:22:43.884Z,2.08
2022-08-29T06:25:37.529Z,1.30
2022-08-29T06:28:03.436Z,1.67
2022-08-29T06:30:39.342Z,1.20
2022-08-29T06:33:11.846Z,1.40
2022-08-29T06:35:41.564Z,1.25
2022-08-29T06:38:14.386Z,1.17
2022-08-29T06:40:46.318Z,0.90
2022-08-29T06:43:23.053Z,0.93
2022-08-29T06:45:54.981Z,1.48
2022-08-29T06:48:27.608Z,1.20
2022-08-29T06:51:05.064Z,1.05
2022-08-29T06:53:37.388Z,1.40
2022-08-29T06:56:11.195Z,0.90
2022-08-29T06:58:43.025Z,1.15
2022-08-29T07:01:16.677Z,1.38
2022-08-29T07:03:48.525Z,0.80
2022-08-29T07:06:19.614Z,0.95
2022-08-29T07:08:55.928Z,1.00
2022-08-29T07:11:26.810Z,0.93
2022-08-29T07:13:58.383Z,0.93
2022-08-29T07:16:27.935Z,0.85
2022-08-29T07:18:57.189Z,1.00
2022-08-29T07:21:27.225Z,1.10
2022-08-29T07:23:59.496Z,1.08
2022-08-29T07:26:30.909Z,1.00
2022-08-29T07:29:01.965Z,1.05
2022-08-29T07:31:39.128Z,1.05
2022-08-29T07:34:09.527Z,1.33
2022-08-29T07:36:39.478Z,0.90
2022-08-29T07:39:11.517Z,0.80
2022-08-29T07:41:44.630Z,0.90
2022-08-29T07:44:14.280Z,0.75
2022-08-29T07:46:46.528Z,1.08
2022-08-29T07:49:17.848Z,1.05
2022-08-29T07:51:46.949Z,0.98
2022-08-29T07:54:20.481Z,1.02
2022-08-29T07:57:05.522Z,1.33
2022-08-29T07:59:35.435Z,1.00
2022-08-29T08:02:12.265Z,0.90
2022-08-29T08:04:45.274Z,1.60
2022-08-29T08:07:22.858Z,0.70
2022-08-29T08:10:03.478Z,0.98
2022-08-29T08:12:36.977Z,0.63
2022-08-29T08:15:07.333Z,0.60
2022-08-29T08:17:40.872Z,0.80
2022-08-29T08:20:13.963Z,0.85
2022-08-29T08:22:43.158Z,1.13
2022-08-29T08:25:16.550Z,0.50
2022-08-29T08:27:56.253Z,1.13
2022-08-29T08:30:39.044Z,1.20
2022-08-29T08:33:34.761Z,0.60
2022-08-29T08:36:15.094Z,0.68
2022-08-29T08:38:44.726Z,0.80
2022-08-29T08:41:22.884Z,1.10
2022-08-29T08:43:57.127Z,0.73
2022-08-29T08:46:30.546Z,0.98
2022-08-29T08:49:08.772Z,0.70
2022-08-29T08:51:40.152Z,0.70
2022-08-29T08:54:19.826Z,0.77
2022-08-29T08:57:01.971Z,0.90
2022-08-29T09:02:09.283Z,0.80
2022-08-29T09:04:40.769Z,0.75
2022-08-29T09:07:15.849Z,0.85
2022-08-29T09:09:53.762Z,1.00
2022-08-29T09:12:28.354Z,0.60
2022-08-29T09:15:03.208Z,0.80
2022-08-29T09:17:37.087Z,0.73
2022-08-29T09:20:09.756Z,1.00
2022-08-29T09:22:45.535Z,0.95
2022-08-29T09:25:15.372Z,0.80
2022-08-29T09:27:50.308Z,1.10
2022-08-29T09:30:34.761Z,2.35
2022-08-29T09:33:06.235Z,0.50
2022-08-29T09:35:37.851Z,0.95
2022-08-29T09:38:08.287Z,0.80
2022-08-29T09:41:02.741Z,0.82
2022-08-29T09:43:50.363Z,0.95
2022-08-29T09:46:23.570Z,0.82
2022-08-29T09:48:55.564Z,0.80
2022-08-29T09:51:28.493Z,0.75
2022-08-29T09:54:15.419Z,0.90
2022-08-29T09:56:55.238Z,1.02
2022-08-29T09:59:33.808Z,0.73
2022-08-29T10:02:14.042Z,0.80
2022-08-29T10:04:49.276Z,1.13
2022-08-29T10:07:19.678Z,0.77
2022-08-29T10:09:58.403Z,0.98
2022-08-29T10:12:33.249Z,0.77
2022-08-29T10:15:06.155Z,0.90
2022-08-29T10:17:57.806Z,0.80
2022-08-29T10:20:31.629Z,0.63
2022-08-29T10:23:06.641Z,1.65
2022-08-29T10:25:39.455Z,0.88
2022-08-29T10:28:14.768Z,0.98
2022-08-29T10:30:53.422Z,0.80
2022-08-29T10:33:36.318Z,0.80
2022-08-29T10:36:08.955Z,0.73
2022-08-29T10:38:45.978Z,0.80
2022-08-29T10:41:23.372Z,0.73
2022-08-29T10:43:56.837Z,0.73
2022-08-29T10:46:44.251Z,1.00
2022-08-29T10:49:30.032Z,0.80
2022-08-29T10:52:06.623Z,0.80
2022-08-29T10:54:45.474Z,0.70
2022-08-29T10:57:17.018Z,1.27
2022-08-29T10:59:53.802Z,0.95
2022-08-29T11:02:25.976Z,0.95
2022-08-29T11:07:31.009Z,0.85
2022-08-29T11:10:06.694Z,1.02
2022-08-29T11:12:45.505Z,0.90
2022-08-29T11:15:18.823Z,0.75
2022-08-29T11:17:51.139Z,0.80
2022-08-29T11:20:22.368Z,1.23
2022-08-29T11:22:54.584Z,0.90
2022-08-29T11:25:24.063Z,1.00
2022-08-29T11:28:08.764Z,0.80
2022-08-29T11:30:46.111Z,0.80
2022-08-29T11:33:25.264Z,0.70
2022-08-29T11:36:06.050Z,1.02
2022-08-29T11:39:00.141Z,1.10
2022-08-29T11:41:32.109Z,0.88
2022-08-29T11:44:10.709Z,0.90
2022-08-29T11:46:42.316Z,1.70
2022-08-29T11:49:27.845Z,1.15
2022-08-29T11:51:58.382Z,1.45
2022-08-29T11:54:46.202Z,1.73
2022-08-29T11:57:34.325Z,1.35
2022-08-29T12:00:06.534Z,1.38
2022-08-29T12:02:48.733Z,1.63
2022-08-29T12:05:32.958Z,1.40
2022-08-29T12:08:26.321Z,1.30
2022-08-29T12:10:59.281Z,1.15
2022-08-29T12:13:47.575Z,1.27
2022-08-29T12:16:19.379Z,1.08
2022-08-29T12:18:53.679Z,0.98
2022-08-29T12:21:45.758Z,1.10
2022-08-29T12:24:29.239Z,1.23
2022-08-29T12:26:58.799Z,1.38
2022-08-29T12:29:31.092Z,1.88
2022-08-29T12:32:22.273Z,1.30
2022-08-29T12:35:00.438Z,1.20
2022-08-29T12:37:47.247Z,1.10
2022-08-29T12:40:25.334Z,1.10
2022-08-29T12:43:06.630Z,1.20
2022-08-29T12:45:36.941Z,1.15
2022-08-29T12:48:15.871Z,1.13
2022-08-29T12:50:48.289Z,1.00
2022-08-29T12:55:48.444Z,1.00
2022-08-29T12:58:36.678Z,0.97
2022-08-29T13:01:13.643Z,1.00
2022-08-29T13:03:44.312Z,2.03
2022-08-29T13:06:15.248Z,1.38
2022-08-29T13:08:44.410Z,1.55
2022-08-29T13:11:16.055Z,1.13
2022-08-29T13:13:45.212Z,0.82
2022-08-29T13:16:27.227Z,0.70
2022-08-29T13:19:10.464Z,1.15
2022-08-29T13:21:41.107Z,1.13
2022-08-29T13:24:12.548Z,0.80
2022-08-29T13:26:50.603Z,1.75
2022-08-29T13:29:37.664Z,0.77
2022-08-29T13:32:10.961Z,0.80
2022-08-29T13:35:03.175Z,1.02
2022-08-29T13:37:42.939Z,1.23
2022-08-29T13:40:32.679Z,0.75
2022-08-29T13:43:02.822Z,0.90
2022-08-29T13:45:32.017Z,1.23
2022-08-29T13:48:04.731Z,1.05
2022-08-29T13:50:37.068Z,0.70
2022-08-29T13:53:06.415Z,0.82
2022-08-29T13:55:39.305Z,0.80
2022-08-29T13:58:11.965Z,0.98
2022-08-29T14:00:41.293Z,0.60
2022-08-29T14:03:12.487Z,0.73
2022-08-29T14:05:46.156Z,0.88
2022-08-29T14:08:15.557Z,0.82
2022-08-29T14:10:45.173Z,0.88
2022-08-29T14:13:14.260Z,0.77
2022-08-29T14:15:45.581Z,0.77
2022-08-29T14:18:17.650Z,0.73
2022-08-29T14:20:48.388Z,0.90
2022-08-29T14:23:22.652Z,1.10
2022-08-29T14:25:56.189Z,0.65
2022-08-29T14:28:25.237Z,0.60
2022-08-29T14:30:55.071Z,0.73
2022-08-29T14:33:36.858Z,0.75
2022-08-29T14:36:07.691Z,0.70
2022-08-29T14:38:37.105Z,0.90
2022-08-29T14:41:06.936Z,0.80
2022-08-29T14:43:39.733Z,1.00
2022-08-29T14:46:10.174Z,0.77
2022-08-29T14:48:39.524Z,1.05
2022-08-29T14:51:10.686Z,0.60
2022-08-29T14:53:47.051Z,0.80
2022-08-29T14:56:44.523Z,1.65
2022-08-29T14:59:11.445Z,0.70
2022-08-29T15:01:42.155Z,0.80
2022-08-29T15:04:13.965Z,0.80
2022-08-29T15:06:44.945Z,0.70
2022-08-29T15:09:16.182Z,1.42
2022-08-29T15:11:45.637Z,0.83
2022-08-29T15:14:15.198Z,0.90
2022-08-29T15:16:44.517Z,0.82
2022-08-29T15:19:45.158Z,0.80
2022-08-29T15:22:07.008Z,0.75
2022-08-29T15:24:37.381Z,0.70
2022-08-29T15:27:07.084Z,0.88
2022-08-29T15:29:37.294Z,0.85
2022-08-29T15:32:06.505Z,0.82
2022-08-29T15:34:35.651Z,1.05
2022-08-29T15:37:08.400Z,0.90
2022-08-29T15:39:37.965Z,1.02
2022-08-29T15:42:11.002Z,1.00
2022-08-29T15:44:41.036Z,1.15
2022-08-29T15:47:14.364Z,0.90
2022-08-29T15:49:43.952Z,0.80
2022-08-29T15:52:15.291Z,0.70
2022-08-29T15:54:44.553Z,0.80
2022-08-29T15:57:14.487Z,1.25
2022-08-29T15:59:57.641Z,0.88
2022-08-29T16:02:35.073Z,1.10
2022-08-29T16:05:07.201Z,1.02
2022-08-29T16:07:39.913Z,1.67
2022-08-29T16:10:11.133Z,0.90
2022-08-29T16:12:43.798Z,0.80
2022-08-29T16:15:16.631Z,0.77
2022-08-29T16:17:47.028Z,1.02
2022-08-29T16:20:19.433Z,1.10
2022-08-29T16:22:50.637Z,1.42
2022-08-29T16:25:20.058Z,1.10
2022-08-29T16:27:50.650Z,0.98
2022-08-29T16:30:20.282Z,1.25
2022-08-29T16:32:52.893Z,1.38
2022-08-29T16:35:24.759Z,1.00
2022-08-29T16:38:02.857Z,0.80
2022-08-29T16:40:33.342Z,0.70
2022-08-29T16:43:03.545Z,0.90
2022-08-29T16:45:36.217Z,0.90
2022-08-29T16:48:21.658Z,0.75
2022-08-29T16:50:51.586Z,1.13
2022-08-29T16:53:28.377Z,0.70
2022-08-29T16:56:03.310Z,1.00
2022-08-29T16:58:59.267Z,1.13
2022-08-29T17:01:32.205Z,1.73
2022-08-29T17:04:03.258Z,0.98
2022-08-29T17:06:33.896Z,1.63
2022-08-29T17:09:08.921Z,0.80
2022-08-29T17:11:43.240Z,0.93
2022-08-29T17:14:12.964Z,0.80
2022-08-29T17:16:45.904Z,1.48
2022-08-29T17:19:15.637Z,1.00
2022-08-29T17:21:44.947Z,1.55
2022-08-29T17:24:16.034Z,1.25
2022-08-29T17:26:51.336Z,0.82
2022-08-29T17:29:22.296Z,1.33
2022-08-29T17:31:51.728Z,1.60
2022-08-29T17:34:21.192Z,1.27
2022-08-29T17:36:50.370Z,1.40
2022-08-29T17:39:26.320Z,1.30
2022-08-29T17:41:56.072Z,1.10
2022-08-29T17:44:25.710Z,0.98
2022-08-29T17:47:03.247Z,1.10
2022-08-29T17:49:33.580Z,0.98
2022-08-29T17:52:02.960Z,0.93
2022-08-29T17:54:33.930Z,0.88
2022-08-29T17:57:06.228Z,1.00
2022-08-29T18:02:06.283Z,0.85
2022-08-29T18:04:35.474Z,0.57
2022-08-29T18:07:05.445Z,0.75
2022-08-29T18:09:36.241Z,0.65
2022-08-29T18:12:06.400Z,1.10
2022-08-29T18:14:35.801Z,1.33
2022-08-29T18:17:08.044Z,1.40
2022-08-29T18:22:07.933Z,0.70
2022-08-29T18:24:38.596Z,1.45
2022-08-29T18:27:12.416Z,1.00
2022-08-29T18:29:46.524Z,0.60
2022-08-29T18:32:18.888Z,1.15
2022-08-29T18:34:48.615Z,0.95
2022-08-29T18:37:18.042Z,0.90
2022-08-29T18:39:55.083Z,1.48
2022-08-29T18:42:39.855Z,0.80
2022-08-29T18:45:12.173Z,0.98
2022-08-29T18:47:43.793Z,1.02
2022-08-29T18:50:30.696Z,0.90
2022-08-29T18:53:02.867Z,1.10
2022-08-29T18:55:34.017Z,1.27
2022-08-29T18:58:03.293Z,0.93
2022-08-29T19:00:32.902Z,1.00
2022-08-29T19:03:02.546Z,0.95
2022-08-29T19:05:34.044Z,1.10
2022-08-29T19:08:09.066Z,1.58
2022-08-29T19:10:40.320Z,1.10
2022-08-29T19:13:15.304Z,1.30
2022-08-29T19:15:47.507Z,1.10
2022-08-29T19:18:17.564Z,0.88
2022-08-29T19:21:06.134Z,0.90
2022-08-29T19:23:43.484Z,1.13
2022-08-29T19:26:15.983Z,1.00
2022-08-29T19:28:47.517Z,1.10
2022-08-29T19:31:21.272Z,1.58
2022-08-29T19:33:50.521Z,1.27
2022-08-29T19:36:19.981Z,1.10
2022-08-29T19:38:49.441Z,1.33
2022-08-29T19:41:21.724Z,0.90
2022-08-29T19:43:50.867Z,1.08
2022-08-29T19:46:23.114Z,1.50
2022-08-29T19:48:54.009Z,1.10
2022-08-29T19:51:25.356Z,1.23
2022-08-29T19:53:59.628Z,1.00
2022-08-29T19:56:33.335Z,1.30
2022-08-29T19:59:02.789Z,1.52
2022-08-29T20:01:33.669Z,1.10
2022-08-29T20:04:03.115Z,1.77
2022-08-29T20:06:34.269Z,1.58
2022-08-29T20:09:06.510Z,1.70
2022-08-29T20:11:43.834Z,1.83
2022-08-29T20:14:14.266Z,1.77
2022-08-29T20:16:45.081Z,3.00
2022-08-29T20:19:14.818Z,2.35
2022-08-29T20:21:44.905Z,2.33
2022-08-29T20:24:15.547Z,4.03
2022-08-29T20:26:49.626Z,2.00
2022-08-29T20:29:21.741Z,2.20
2022-08-29T20:31:51.149Z,2.47
2022-08-29T20:34:20.783Z,2.20
2022-08-29T20:37:07.578Z,3.03
2022-08-29T20:39:37.231Z,2.83
2022-08-29T20:42:11.550Z,2.75
2022-08-29T20:44:46.495Z,2.20
2022-08-29T20:47:17.985Z,2.35
2022-08-29T20:49:47.505Z,2.10
2022-08-29T20:52:23.514Z,1.70
2022-08-29T20:54:57.782Z,1.65
2022-08-29T20:57:28.316Z,1.25
2022-08-29T21:00:00.611Z,1.65
2022-08-29T21:02:48.560Z,1.40
2022-08-29T21:05:39.974Z,1.15
2022-08-29T21:08:09.463Z,1.35
2022-08-29T21:10:39.679Z,1.60
2022-08-29T21:13:10.600Z,1.25
2022-08-29T21:15:43.381Z,1.10
2022-08-29T21:18:16.238Z,1.00
2022-08-29T21:20:54.306Z,0.93
2022-08-29T21:23:24.811Z,1.10
2022-08-29T21:25:55.603Z,1.17
2022-08-29T21:28:28.287Z,1.02
2022-08-29T21:30:57.785Z,1.30
2022-08-29T21:33:27.204Z,0.85
2022-08-29T21:36:01.171Z,1.30
2022-08-29T21:38:32.621Z,0.98
2022-08-29T21:41:01.944Z,1.30
2022-08-29T21:43:33.457Z,1.10
2022-08-29T21:46:04.360Z,1.17
2022-08-29T21:48:36.143Z,1.27
2022-08-29T21:51:05.550Z,1.10
2022-08-29T21:53:35.696Z,1.27
2022-08-29T21:56:12.436Z,0.90
2022-08-29T21:58:43.150Z,1.63
2022-08-29T22:01:12.560Z,0.90
2022-08-29T22:03:42.178Z,1.02
2022-08-29T22:06:12.862Z,0.90
2022-08-29T22:08:45.658Z,0.82
2022-08-29T22:11:20.915Z,2.17
2022-08-29T22:13:53.741Z,1.02
2022-08-29T22:16:30.166Z,0.93
2022-08-29T22:19:01.322Z,0.95
2022-08-29T22:21:33.147Z,1.00
2022-08-29T22:24:10.649Z,0.80
2022-08-29T22:26:40.393Z,0.80
2022-08-29T22:29:13.730Z,1.05
2022-08-29T22:31:44.706Z,1.10
2022-08-29T22:34:18.044Z,1.00
2022-08-29T22:36:47.579Z,1.02
2022-08-29T22:39:19.761Z,1.15
2022-08-29T22:49:44.240Z,0.90
2022-08-29T22:52:15.998Z,1.17
2022-08-29T22:54:45.288Z,1.50
2022-08-29T22:57:17.212Z,1.05
2022-08-29T22:59:49.262Z,1.00
2022-08-29T23:02:19.556Z,0.90
2022-08-29T23:04:50.012Z,1.10
2022-08-29T23:07:20.549Z,1.20
2022-08-29T23:09:51.204Z,1.63
2022-08-29T23:12:22.835Z,0.90
2022-08-29T23:14:56.063Z,1.08
2022-08-29T23:17:27.155Z,1.33
2022-08-29T23:19:56.486Z,1.13
2022-08-29T23:22:31.947Z,1.48
2022-08-29T23:25:03.715Z,1.83
2022-08-29T23:27:33.940Z,1.30
2022-08-29T23:30:06.500Z,1.48
2022-08-29T23:32:36.778Z,1.50
2022-08-29T23:35:09.197Z,1.30
2022-08-29T23:37:38.593Z,1.65
2022-08-29T23:40:09.895Z,1.60
2022-08-29T23:42:39.023Z,1.48
2022-08-29T23:45:10.799Z,1.23
2022-08-29T23:47:40.101Z,1.33
2022-08-29T23:50:15.321Z,1.40
2022-08-29T23:52:44.537Z,1.20
2022-08-29T23:55:18.145Z,1.20
2022-08-29T23:57:47.435Z,1.20
